createdAt,value
2023-03-23T15:57:52.245Z,45330.28
2023-03-23T16:00:20.924Z,45336.28
2023-03-23T16:02:49.416Z,45330.28
2023-03-23T16:05:16.129Z,45320.28
2023-03-23T16:07:42.569Z,45320.28
2023-03-23T16:10:17.144Z,45316.28
2023-03-23T16:12:43.937Z,45318.28
2023-03-23T16:15:10.576Z,45314.28
2023-03-23T16:17:37.228Z,45318.28
2023-03-23T16:20:14.590Z,45338.28
2023-03-23T16:22:41.614Z,45346.28
2023-03-23T16:25:09.262Z,45346.28
2023-03-23T16:27:36.163Z,45342.28
2023-03-23T16:30:13.046Z,45348.28
2023-03-23T16:35:05.154Z,45330.28
2023-03-23T16:37:33.939Z,45342.28
2023-03-23T16:40:01.451Z,45354.25
2023-03-23T16:42:27.846Z,45338.28
2023-03-23T16:44:54.737Z,45358.25
2023-03-23T16:47:25.454Z,45342.28
2023-03-23T16:49:53.835Z,45326.28
2023-03-23T16:52:20.473Z,45356.25
2023-03-23T16:54:46.853Z,45346.28
2023-03-23T16:57:13.478Z,45322.28
2023-03-23T16:59:40.040Z,45354.25
2023-03-23T17:02:06.903Z,45342.28
2023-03-23T17:04:34.065Z,45342.28
2023-03-23T17:07:00.599Z,45342.28
2023-03-23T17:09:27.650Z,45366.25
2023-03-23T17:11:54.690Z,45338.28
2023-03-23T17:14:21.933Z,45366.25
2023-03-23T17:16:48.366Z,45354.25
2023-03-23T17:19:14.751Z,45348.28
2023-03-23T17:21:41.252Z,45362.25
2023-03-23T17:24:08.254Z,45370.25
2023-03-23T17:26:35.914Z,45354.25
2023-03-23T17:29:03.274Z,45354.25
2023-03-23T17:31:29.729Z,45358.25
2023-03-23T17:33:57.502Z,45366.25
2023-03-23T17:36:24.631Z,45378.25
2023-03-23T17:38:51.738Z,45358.25
2023-03-23T17:41:20.839Z,45368.25
2023-03-23T17:43:47.652Z,45382.25
2023-03-23T17:46:14.870Z,45374.25
2023-03-23T17:48:41.645Z,45370.25
2023-03-23T17:51:08.085Z,45366.25
2023-03-23T17:53:35.807Z,45366.25
2023-03-23T17:56:04.629Z,45376.25
2023-03-23T17:58:31.794Z,45380.25
2023-03-23T18:00:58.236Z,45382.25
2023-03-23T18:03:26.102Z,45372.25
2023-03-23T18:05:59.404Z,45382.25
2023-03-23T18:08:26.723Z,45390.25
2023-03-23T18:10:55.458Z,45378.25
2023-03-23T18:13:22.219Z,45382.25
2023-03-23T18:15:49.183Z,45382.25
2023-03-23T18:18:15.954Z,45366.25
2023-03-23T18:20:42.522Z,45390.25
2023-03-23T18:23:08.930Z,45386.25
2023-03-23T18:25:36.752Z,45388.25
2023-03-23T18:28:04.616Z,45398.22
2023-03-23T18:30:34.118Z,45408.22
2023-03-23T18:33:00.585Z,45388.25
2023-03-23T18:35:27.348Z,45374.25
2023-03-23T18:37:54.152Z,45378.25
2023-03-23T18:40:21.006Z,45376.25
2023-03-23T18:42:48.764Z,45384.25
2023-03-23T18:45:15.357Z,45388.25
2023-03-23T18:47:41.801Z,45370.25
2023-03-23T18:50:10.965Z,45394.22
2023-03-23T18:52:37.686Z,45398.22
2023-03-23T18:55:04.638Z,45396.22
2023-03-23T18:57:31.029Z,45408.22
2023-03-23T18:59:58.154Z,45396.22
2023-03-23T19:02:24.767Z,45388.25
2023-03-23T19:04:51.493Z,45400.22
2023-03-23T19:07:19.537Z,45392.22
2023-03-23T19:09:47.314Z,45394.22
2023-03-23T19:12:14.957Z,45398.22
2023-03-23T19:14:41.767Z,45382.25
2023-03-23T19:17:09.079Z,45400.22
2023-03-23T19:19:36.627Z,45386.25
2023-03-23T19:22:03.804Z,45370.25
2023-03-23T19:24:30.448Z,45414.22
2023-03-23T19:26:57.174Z,45400.22
2023-03-23T19:29:27.022Z,45392.22
2023-03-23T19:31:56.327Z,45390.25
2023-03-23T19:34:24.407Z,45400.22
2023-03-23T19:36:59.237Z,45378.25
2023-03-23T19:39:30.763Z,45386.25
2023-03-23T19:41:57.305Z,45390.25
2023-03-23T19:44:23.659Z,45384.25
2023-03-23T19:46:50.260Z,45410.22
2023-03-23T19:49:16.819Z,45402.22
2023-03-23T19:51:43.365Z,45416.22
2023-03-23T19:54:10.007Z,45390.25
2023-03-23T19:56:36.797Z,45398.22
2023-03-23T19:59:04.514Z,45394.22
2023-03-23T20:01:31.070Z,45390.25
2023-03-23T20:03:59.990Z,45386.25
2023-03-23T20:06:29.186Z,45394.22
2023-03-23T20:08:56.928Z,45410.22
2023-03-23T20:11:24.365Z,45396.22
2023-03-23T20:13:50.863Z,45402.22
2023-03-23T20:16:18.405Z,45398.22
2023-03-23T20:18:47.200Z,45402.22
2023-03-23T20:21:19.801Z,45410.22
2023-03-23T20:23:47.338Z,45396.22
2023-03-23T20:26:23.259Z,45402.22
2023-03-23T20:28:50.461Z,45390.25
2023-03-23T20:31:24.504Z,45406.22
2023-03-23T20:34:01.172Z,45394.22
2023-03-23T20:36:37.094Z,45398.22
2023-03-23T20:39:10.373Z,45388.25
2023-03-23T20:41:38.395Z,45386.25
2023-03-23T20:44:06.916Z,45410.22
2023-03-23T20:46:34.038Z,45390.25
2023-03-23T20:49:01.239Z,45378.25
2023-03-23T20:51:27.903Z,45384.25
2023-03-23T20:53:54.831Z,45382.25
2023-03-23T20:56:22.290Z,45396.22
2023-03-23T20:58:48.867Z,45410.22
2023-03-23T21:01:15.437Z,45394.22
2023-03-23T21:03:43.346Z,45402.22
2023-03-23T21:06:10.765Z,45410.22
2023-03-23T21:08:39.492Z,45394.22
2023-03-23T21:11:09.151Z,45402.22
2023-03-23T21:13:36.601Z,45394.22
2023-03-23T21:16:04.013Z,45400.22
2023-03-23T21:18:31.105Z,45396.22
2023-03-23T21:20:57.758Z,45398.22
2023-03-23T21:23:26.410Z,45406.22
2023-03-23T21:25:53.660Z,45394.22
2023-03-23T21:28:20.193Z,45418.22
2023-03-23T21:30:48.304Z,45414.22
2023-03-23T21:33:15.213Z,45406.22
2023-03-23T21:35:41.850Z,45402.22
2023-03-23T21:38:14.174Z,45402.22
2023-03-23T21:40:44.307Z,45410.22
2023-03-23T21:43:14.803Z,45398.22
2023-03-23T21:45:42.314Z,45422.22
2023-03-23T21:48:09.730Z,45422.22
2023-03-23T21:50:38.100Z,45402.22
2023-03-23T21:53:05.564Z,45398.22
2023-03-23T21:55:33.520Z,45434.19
2023-03-23T21:58:01.376Z,45410.22
2023-03-23T22:00:28.331Z,45402.22
2023-03-23T22:02:55.054Z,45418.22
2023-03-23T22:05:21.488Z,45414.22
2023-03-23T22:07:49.154Z,45408.22
2023-03-23T22:10:16.082Z,45414.22
2023-03-23T22:12:42.434Z,45414.22
2023-03-23T22:15:13.666Z,45430.22
2023-03-23T22:17:40.363Z,45398.22
2023-03-23T22:20:10.709Z,45418.22
2023-03-23T22:22:37.115Z,45414.22
2023-03-23T22:25:03.973Z,45416.22
2023-03-23T22:27:30.755Z,45418.22
2023-03-23T22:29:57.189Z,45414.22
2023-03-23T22:32:24.188Z,45432.19
2023-03-23T22:34:51.828Z,45422.22
2023-03-23T22:37:18.948Z,45406.22
2023-03-23T22:39:45.322Z,45414.22
2023-03-23T22:42:13.080Z,45430.22
2023-03-23T22:44:40.686Z,45414.22
2023-03-23T22:47:07.090Z,45418.22
2023-03-23T22:49:33.510Z,45434.19
2023-03-23T22:51:59.899Z,45448.19
2023-03-23T22:54:26.449Z,45434.19
2023-03-23T22:56:53.123Z,45410.22
2023-03-23T22:59:19.682Z,45434.19
2023-03-23T23:01:46.459Z,45422.22
2023-03-23T23:04:13.102Z,45438.19
2023-03-23T23:06:39.617Z,45434.19
2023-03-23T23:09:06.201Z,45414.22
2023-03-23T23:11:32.905Z,45434.19
2023-03-23T23:13:59.440Z,45410.22
2023-03-23T23:16:27.512Z,45426.22
2023-03-23T23:18:54.783Z,45422.22
2023-03-23T23:21:25.126Z,45438.19
2023-03-23T23:23:51.910Z,45426.22
2023-03-23T23:26:20.183Z,45444.19
2023-03-23T23:28:48.290Z,45444.19
2023-03-23T23:31:26.563Z,45432.19
2023-03-23T23:33:56.081Z,45442.19
2023-03-23T23:36:23.447Z,45438.19
2023-03-23T23:38:49.879Z,45432.19
2023-03-23T23:41:16.383Z,45426.22
2023-03-23T23:43:42.782Z,45434.19
2023-03-23T23:46:09.253Z,45438.19
2023-03-23T23:48:35.729Z,45442.19
2023-03-23T23:51:02.476Z,45432.19
2023-03-23T23:53:28.962Z,45430.22
2023-03-23T23:55:55.360Z,45438.19
2023-03-23T23:58:21.806Z,45430.22
